ENBL

Details ICAO ENBL
Name BRINGELAND
Region Norway
Timezone Europe/Oslo (UTC+1.0)
Plans Departing 9
Arriving 17
Stats Elevation 1,046 ft / 319 m (AMSL)
Location 61.391815° 5.761330°
Runways 1
Magnetic Variation 1.035° E
Sunrise 2017-12-12 08:45:59 UTC / 2017-12-12 09:45:59 Local
Sunset 2017-12-12 14:18:14 UTC / 2017-12-12 15:18:14 Local
Advertisement - Login to hide

Runways

ID Width Length Bearing (true) Bearing (mag) Surface Threshold Offset Overrun Length
07 98 ft / 30 m 3,107 ft / 947 m 73.80° 72.77° Asphalt 98 ft / 30 m 207 ft / 63 m
25 98 ft / 30 m 3,107 ft / 947 m 253.81° 252.78° Asphalt 148 ft / 45 m 66 ft / 20 m

Approach Navaids

Runway Type Ident Frequency Range Bearing (true) Bearing (mag) Slope Elevation
07 Localiser BL 110.70 MHz 50 nm / 93 km 75.00° 73.97° - 1,091 ft / 333 m (AMSL)
07 DME BL 110.70 MHz 50 nm / 93 km - - - 1,091 ft / 333 m (AMSL)
25 Localiser FD 109.35 MHz 50 nm / 93 km 250.00° 248.97° - 1,054 ft / 321 m (AMSL)
25 DME FD 109.35 MHz 50 nm / 93 km - - - 1,054 ft / 321 m (AMSL)

Map

Weather


0- 5 10 15 20 25 30 35+ Temperature / ° C

Clouds and Precipitation
Forecast for 2017-12-12 18:00 UTC. Updated an hour ago

Ground ~20,000 ft ~40,000 ft Winds

METAR

ENBL 121550Z 31004KT CAVOK M08/M10 Q0995

TAF

Not found

Frequencies

Tower 118.45 MHz AFIS
Warning: Do not use this data for real-world aviation or navigation. No guarantee of current accuracy is given.